createdAt,value
2018-10-02T00:01:00.130Z,2.22
2018-10-02T00:03:28.318Z,1.85
2018-10-02T00:05:56.405Z,2.08
2018-10-02T00:08:24.516Z,2.17
2018-10-02T00:10:57.949Z,1.82
2018-10-02T00:13:31.730Z,2.55
2018-10-02T00:15:59.873Z,2.08
2018-10-02T00:18:27.950Z,2.22
2018-10-02T00:20:56.052Z,2.22
2018-10-02T00:23:24.154Z,2.70
2018-10-02T00:25:52.241Z,2.02
2018-10-02T00:28:20.366Z,2.45
2018-10-02T00:30:48.546Z,1.92
2018-10-02T00:33:16.656Z,2.10
2018-10-02T00:35:44.874Z,1.85
2018-10-02T00:38:13.053Z,2.55
2018-10-02T00:40:41.258Z,2.17
2018-10-02T00:43:09.431Z,1.82
2018-10-02T00:45:37.562Z,2.83
2018-10-02T00:48:05.745Z,2.30
2018-10-02T00:50:33.829Z,2.65
2018-10-02T00:53:01.930Z,2.35
2018-10-02T00:55:30.080Z,2.45
2018-10-02T00:57:58.241Z,2.90
2018-10-02T01:00:26.432Z,2.27
2018-10-02T01:02:54.526Z,2.52
2018-10-02T01:05:22.614Z,2.22
2018-10-02T01:07:50.718Z,2.10
2018-10-02T01:10:18.829Z,3.20
2018-10-02T01:12:47.014Z,2.50
2018-10-02T01:15:15.226Z,2.72
2018-10-02T01:17:43.310Z,3.58
2018-10-02T01:20:11.422Z,3.50
2018-10-02T01:22:39.654Z,2.80
2018-10-02T01:25:07.801Z,2.37
2018-10-02T01:27:35.906Z,3.00
2018-10-02T01:30:04.010Z,2.60
2018-10-02T01:32:32.093Z,2.72
2018-10-02T01:35:00.202Z,3.12
2018-10-02T01:37:28.398Z,2.58
2018-10-02T01:39:56.491Z,2.75
2018-10-02T01:42:24.605Z,2.35
2018-10-02T01:44:52.802Z,2.92
2018-10-02T01:47:20.936Z,3.05
2018-10-02T01:49:49.214Z,2.98
2018-10-02T01:52:17.413Z,3.10
2018-10-02T01:54:45.623Z,2.62
2018-10-02T01:57:13.789Z,3.05
2018-10-02T01:59:41.886Z,3.12
2018-10-02T02:02:09.989Z,2.60
2018-10-02T02:04:38.070Z,2.80
2018-10-02T02:07:06.453Z,3.08
2018-10-02T02:09:34.812Z,2.55
2018-10-02T02:12:02.981Z,2.47
2018-10-02T02:14:31.073Z,3.33
2018-10-02T02:16:59.189Z,2.77
2018-10-02T02:19:27.402Z,3.12
2018-10-02T02:21:55.595Z,2.12
2018-10-02T02:24:23.769Z,2.37
2018-10-02T02:26:51.883Z,2.22
2018-10-02T02:29:20.018Z,2.50
2018-10-02T02:31:48.202Z,2.70
2018-10-02T02:34:16.484Z,2.50
2018-10-02T02:36:44.538Z,3.00
2018-10-02T02:39:12.692Z,2.35
2018-10-02T02:41:40.882Z,2.45
2018-10-02T02:44:08.967Z,2.20
2018-10-02T02:46:37.068Z,2.08
2018-10-02T02:49:10.682Z,1.65
2018-10-02T02:51:38.794Z,2.40
2018-10-02T02:54:06.910Z,2.05
2018-10-02T02:56:35.082Z,2.00
2018-10-02T02:59:03.198Z,2.10
2018-10-02T03:01:32.299Z,2.40
2018-10-02T03:04:00.420Z,2.52
2018-10-02T03:06:28.514Z,2.15
2018-10-02T03:08:56.602Z,2.27
2018-10-02T03:11:25.731Z,2.15
2018-10-02T03:13:53.837Z,1.95
2018-10-02T03:16:21.971Z,2.22
2018-10-02T03:18:50.125Z,2.20
2018-10-02T03:21:18.246Z,1.70
2018-10-02T03:23:46.422Z,1.57
2018-10-02T03:26:14.542Z,2.08
2018-10-02T03:28:42.719Z,1.82
2018-10-02T03:31:10.819Z,1.50
2018-10-02T03:33:38.925Z,2.40
2018-10-02T03:36:07.093Z,1.80
2018-10-02T03:38:35.318Z,1.70
2018-10-02T03:41:03.410Z,2.08
2018-10-02T03:43:31.511Z,2.00
2018-10-02T03:45:59.593Z,1.60
2018-10-02T03:48:27.709Z,2.15
2018-10-02T03:50:55.898Z,1.87
2018-10-02T03:53:24.018Z,2.00
2018-10-02T03:55:52.182Z,2.02
2018-10-02T03:58:20.294Z,2.08
2018-10-02T04:00:48.510Z,1.82
2018-10-02T04:03:16.697Z,2.42
2018-10-02T04:05:44.842Z,1.90
2018-10-02T04:08:13.028Z,2.17
2018-10-02T04:10:41.418Z,1.75
2018-10-02T04:13:09.667Z,2.22
2018-10-02T04:15:37.800Z,1.98
2018-10-02T04:18:05.936Z,1.90
2018-10-02T04:20:34.163Z,1.47
2018-10-02T04:23:02.317Z,1.80
2018-10-02T04:25:30.481Z,1.60
2018-10-02T04:27:58.668Z,1.65
2018-10-02T04:30:27.010Z,2.12
2018-10-02T04:32:55.178Z,2.05
2018-10-02T04:35:23.293Z,2.05
2018-10-02T04:37:51.473Z,1.98
2018-10-02T04:40:19.589Z,1.80
2018-10-02T04:42:47.686Z,1.75
2018-10-02T04:45:15.790Z,2.10
2018-10-02T04:47:43.978Z,1.55
2018-10-02T04:50:12.084Z,2.20
2018-10-02T04:52:40.266Z,2.20
2018-10-02T04:55:08.431Z,1.98
2018-10-02T04:57:36.562Z,1.40
2018-10-02T05:00:04.834Z,2.02
2018-10-02T05:02:32.962Z,1.25
2018-10-02T05:05:01.071Z,1.82
2018-10-02T05:07:29.290Z,1.95
2018-10-02T05:09:57.470Z,1.67
2018-10-02T05:12:25.558Z,1.70
2018-10-02T05:14:53.663Z,1.72
2018-10-02T05:17:21.985Z,2.17
2018-10-02T05:19:50.178Z,1.60
2018-10-02T05:22:18.351Z,1.50
2018-10-02T05:24:46.469Z,1.80
2018-10-02T05:27:15.246Z,1.45
2018-10-02T05:29:43.272Z,1.32
2018-10-02T05:32:11.362Z,1.77
2018-10-02T05:34:39.445Z,2.22
2018-10-02T05:37:07.525Z,2.12
2018-10-02T05:39:35.623Z,2.15
2018-10-02T05:42:03.825Z,1.62
2018-10-02T05:44:31.919Z,2.10
2018-10-02T05:46:59.994Z,1.98
2018-10-02T05:49:28.098Z,2.10
2018-10-02T05:51:56.182Z,2.15
2018-10-02T05:54:24.272Z,2.05
2018-10-02T05:56:52.349Z,2.20
2018-10-02T05:59:20.434Z,2.40
2018-10-02T06:01:48.870Z,2.55
2018-10-02T06:04:16.957Z,2.00
2018-10-02T06:06:45.049Z,2.67
2018-10-02T06:09:13.555Z,1.98
2018-10-02T06:11:42.662Z,2.62
2018-10-02T06:14:11.190Z,2.42
2018-10-02T06:16:39.464Z,2.27
2018-10-02T06:19:07.538Z,2.42
2018-10-02T06:21:36.631Z,1.85
2018-10-02T06:24:04.705Z,2.45
2018-10-02T06:26:32.794Z,1.77
2018-10-02T06:29:00.878Z,2.83
2018-10-02T06:31:28.979Z,2.55
2018-10-02T06:33:57.076Z,2.70
2018-10-02T06:36:25.186Z,2.10
2018-10-02T06:38:53.408Z,2.12
2018-10-02T06:41:21.577Z,2.42
2018-10-02T06:43:50.955Z,2.50
2018-10-02T06:46:19.002Z,2.22
2018-10-02T06:48:47.102Z,2.42
2018-10-02T06:51:15.460Z,2.30
2018-10-02T06:53:43.510Z,2.60
2018-10-02T06:56:11.598Z,2.60
2018-10-02T06:58:39.687Z,2.17
2018-10-02T07:01:07.782Z,2.12
2018-10-02T07:03:35.870Z,2.08
2018-10-02T07:06:03.990Z,2.50
2018-10-02T07:08:32.206Z,2.42
2018-10-02T07:11:00.398Z,2.95
2018-10-02T07:13:28.614Z,2.45
2018-10-02T07:15:56.778Z,2.45
2018-10-02T07:18:24.886Z,2.65
2018-10-02T07:20:53.103Z,2.40
2018-10-02T07:23:21.161Z,2.50
2018-10-02T07:25:49.246Z,2.58
2018-10-02T07:28:17.416Z,2.17
2018-10-02T07:30:45.591Z,1.87
2018-10-02T07:33:13.751Z,2.37
2018-10-02T07:35:41.838Z,2.35
2018-10-02T07:38:09.962Z,1.98
2018-10-02T07:40:38.150Z,2.08
2018-10-02T07:43:06.278Z,1.85
2018-10-02T07:45:34.541Z,1.90
2018-10-02T07:48:02.771Z,1.85
2018-10-02T07:50:30.887Z,1.70
2018-10-02T07:52:58.980Z,2.62
2018-10-02T07:55:27.123Z,1.70
2018-10-02T07:57:55.187Z,1.75
2018-10-02T08:00:23.387Z,1.95
2018-10-02T08:02:51.618Z,1.80
2018-10-02T08:05:19.942Z,2.08
2018-10-02T08:07:47.877Z,2.40
2018-10-02T08:10:47.477Z,2.22
2018-10-02T08:13:15.621Z,2.02
2018-10-02T08:15:44.562Z,2.50
2018-10-02T08:18:12.949Z,1.80
2018-10-02T08:20:42.069Z,1.85
2018-10-02T08:23:10.188Z,2.05
2018-10-02T08:25:42.598Z,2.22
2018-10-02T08:28:10.753Z,2.33
2018-10-02T08:30:39.037Z,2.20
2018-10-02T08:33:07.233Z,2.90
2018-10-02T08:35:35.382Z,2.80
2018-10-02T08:38:03.442Z,2.70
2018-10-02T08:40:31.547Z,2.08
2018-10-02T08:42:59.711Z,2.17
2018-10-02T08:45:27.849Z,2.80
2018-10-02T08:47:56.068Z,2.58
2018-10-02T08:50:24.235Z,2.50
2018-10-02T08:56:24.146Z,3.10
2018-10-02T08:58:52.317Z,2.30
2018-10-02T09:01:20.437Z,2.35
2018-10-02T09:03:48.546Z,2.87
2018-10-02T09:06:16.746Z,2.67
2018-10-02T09:08:44.913Z,2.77
2018-10-02T09:11:13.017Z,2.02
2018-10-02T09:13:41.144Z,2.55
2018-10-02T09:16:09.328Z,1.75
2018-10-02T09:18:37.557Z,2.72
2018-10-02T09:21:05.783Z,2.83
2018-10-02T09:23:34.594Z,2.35
2018-10-02T09:26:02.726Z,2.40
2018-10-02T09:28:31.220Z,2.55
2018-10-02T09:31:05.005Z,2.27
2018-10-02T09:33:38.433Z,2.10
2018-10-02T09:36:12.056Z,2.35
2018-10-02T09:38:45.613Z,2.72
2018-10-02T09:41:18.993Z,2.33
2018-10-02T09:43:51.399Z,2.27
2018-10-02T09:46:19.798Z,2.05
2018-10-02T09:48:48.032Z,2.37
2018-10-02T09:51:16.288Z,1.75
2018-10-02T09:53:44.387Z,2.15
2018-10-02T09:56:12.566Z,2.30
2018-10-02T09:58:40.744Z,2.45
2018-10-02T10:02:14.870Z,2.65
2018-10-02T10:04:43.034Z,2.05
2018-10-02T10:07:11.234Z,2.35
2018-10-02T10:09:39.417Z,2.52
2018-10-02T10:12:08.345Z,2.52
2018-10-02T10:14:36.541Z,2.80
2018-10-02T10:17:04.888Z,2.58
2018-10-02T10:19:32.933Z,2.25
2018-10-02T10:22:01.032Z,2.70
2018-10-02T10:24:29.130Z,2.70
2018-10-02T10:26:57.275Z,2.37
2018-10-02T10:29:25.390Z,2.00
2018-10-02T10:31:53.469Z,2.45
2018-10-02T10:34:21.560Z,2.85
2018-10-02T10:36:49.642Z,1.92
2018-10-02T10:39:17.722Z,1.95
2018-10-02T10:41:45.940Z,2.00
2018-10-02T10:44:14.155Z,2.12
2018-10-02T10:46:42.313Z,2.12
2018-10-02T10:49:10.441Z,1.70
2018-10-02T10:51:38.831Z,2.37
2018-10-02T10:54:07.014Z,1.67
2018-10-02T10:56:35.135Z,1.57
2018-10-02T10:59:03.264Z,1.65
2018-10-02T11:01:31.408Z,2.58
2018-10-02T11:03:59.502Z,2.12
2018-10-02T11:06:27.603Z,2.00
2018-10-02T11:08:55.706Z,1.40
2018-10-02T11:11:23.810Z,2.10
2018-10-02T11:13:52.045Z,1.92
2018-10-02T11:16:20.214Z,1.60
2018-10-02T11:18:48.427Z,1.67
2018-10-02T11:21:16.642Z,2.10
2018-10-02T11:23:44.835Z,1.45
2018-10-02T11:26:13.007Z,1.52
2018-10-02T11:28:42.122Z,1.75
2018-10-02T11:31:10.353Z,1.82
2018-10-02T11:33:38.524Z,1.60
2018-10-02T11:36:06.638Z,1.30
2018-10-02T11:38:34.862Z,1.47
2018-10-02T11:41:03.006Z,1.67
2018-10-02T11:43:31.172Z,1.80
2018-10-02T11:45:59.318Z,1.82
2018-10-02T11:48:27.415Z,1.40
2018-10-02T11:50:55.555Z,1.85
2018-10-02T11:53:23.723Z,1.40
2018-10-02T11:55:51.962Z,1.62
2018-10-02T11:58:20.007Z,1.62
2018-10-02T12:00:48.129Z,2.25
2018-10-02T12:03:16.376Z,1.92
2018-10-02T12:05:44.513Z,1.90
2018-10-02T12:08:12.613Z,1.25
2018-10-02T12:10:40.732Z,2.02
2018-10-02T12:13:08.939Z,1.62
2018-10-02T12:15:37.007Z,1.92
2018-10-02T12:18:05.118Z,1.82
2018-10-02T12:20:33.326Z,1.87
2018-10-02T12:23:01.841Z,1.52
2018-10-02T12:25:30.018Z,1.75
2018-10-02T12:27:58.168Z,1.57
2018-10-02T12:30:26.307Z,1.75
2018-10-02T12:32:54.385Z,2.15
2018-10-02T12:35:22.530Z,1.85
2018-10-02T12:37:50.707Z,2.22
2018-10-02T12:40:18.811Z,2.33
2018-10-02T12:42:46.891Z,2.02
2018-10-02T12:45:15.010Z,2.33
2018-10-02T12:47:43.201Z,2.10
2018-10-02T12:50:11.301Z,1.77
2018-10-02T12:52:39.569Z,2.15
2018-10-02T12:55:07.478Z,2.08
2018-10-02T12:57:35.640Z,2.10
2018-10-02T13:00:04.789Z,2.22
2018-10-02T13:02:32.916Z,2.77
2018-10-02T13:05:01.002Z,2.00
2018-10-02T13:07:29.108Z,2.37
2018-10-02T13:09:57.269Z,2.27
2018-10-02T13:12:25.398Z,2.30
2018-10-02T13:14:53.513Z,2.10
2018-10-02T13:17:21.690Z,2.22
2018-10-02T13:19:49.813Z,2.02
2018-10-02T13:22:17.902Z,2.37
2018-10-02T13:24:46.143Z,2.00
2018-10-02T13:27:14.201Z,1.90
2018-10-02T13:29:42.405Z,2.08
2018-10-02T13:32:10.716Z,2.10
2018-10-02T13:34:38.837Z,2.27
2018-10-02T13:37:07.025Z,2.12
2018-10-02T13:39:35.227Z,2.00
2018-10-02T13:42:03.390Z,2.22
2018-10-02T13:44:31.769Z,2.00
2018-10-02T13:46:59.899Z,1.70
2018-10-02T13:49:28.011Z,2.10
2018-10-02T13:51:56.418Z,2.00
2018-10-02T13:54:24.622Z,2.40
2018-10-02T13:56:52.797Z,2.30
2018-10-02T13:59:20.906Z,1.92
2018-10-02T14:01:49.103Z,2.12
2018-10-02T14:04:17.216Z,2.35
2018-10-02T14:06:45.397Z,3.05
2018-10-02T14:09:13.526Z,2.87
2018-10-02T14:11:41.686Z,2.70
2018-10-02T14:14:09.889Z,2.47
2018-10-02T14:16:37.981Z,2.75
2018-10-02T14:19:06.126Z,2.50
2018-10-02T14:21:34.311Z,2.30
2018-10-02T14:24:02.381Z,2.15
2018-10-02T14:26:30.480Z,2.42
2018-10-02T14:28:58.587Z,1.87
2018-10-02T14:31:26.672Z,1.60
2018-10-02T14:33:54.774Z,1.82
2018-10-02T14:36:22.953Z,2.10
2018-10-02T14:38:51.083Z,1.50
2018-10-02T14:41:19.360Z,1.17
2018-10-02T14:43:47.483Z,1.82
2018-10-02T14:46:15.686Z,1.45
2018-10-02T14:48:43.858Z,1.30
2018-10-02T14:51:11.969Z,1.32
2018-10-02T14:53:40.157Z,1.52
2018-10-02T14:56:08.314Z,1.10
2018-10-02T14:58:36.458Z,1.17
2018-10-02T15:01:04.562Z,0.90
2018-10-02T15:03:32.641Z,0.90
2018-10-02T15:06:00.812Z,1.10
2018-10-02T15:08:28.962Z,1.15
2018-10-02T15:10:57.054Z,0.80
2018-10-02T15:13:25.248Z,0.62
2018-10-02T15:15:53.342Z,0.90
2018-10-02T15:18:21.461Z,0.78
2018-10-02T15:20:49.550Z,0.65
2018-10-02T15:23:17.671Z,0.70
2018-10-02T15:25:45.886Z,0.90
2018-10-02T15:28:14.043Z,0.60
2018-10-02T15:30:42.150Z,0.75
2018-10-02T15:33:10.338Z,0.85
2018-10-02T15:35:38.434Z,0.60
2018-10-02T15:38:06.718Z,0.80
2018-10-02T15:40:34.841Z,0.70
2018-10-02T15:43:02.972Z,0.78
2018-10-02T15:45:31.153Z,0.70
2018-10-02T15:47:59.249Z,0.60
2018-10-02T15:50:27.657Z,0.60
2018-10-02T15:52:55.845Z,0.65
2018-10-02T15:55:24.091Z,1.17
2018-10-02T15:57:52.241Z,0.80
2018-10-02T16:00:20.342Z,0.78
2018-10-02T16:02:48.463Z,0.82
2018-10-02T16:05:16.563Z,0.60
2018-10-02T16:07:44.730Z,0.60
2018-10-02T16:10:12.826Z,0.70
2018-10-02T16:12:41.034Z,0.72
2018-10-02T16:15:09.130Z,0.47
2018-10-02T16:17:37.334Z,0.60
2018-10-02T16:20:05.587Z,0.55
2018-10-02T16:22:33.719Z,0.60
2018-10-02T16:25:01.826Z,0.40
2018-10-02T16:27:30.019Z,0.70
2018-10-02T16:29:59.234Z,0.60
2018-10-02T16:32:27.326Z,0.30
2018-10-02T16:34:55.482Z,0.50
2018-10-02T16:37:23.522Z,0.40
2018-10-02T16:39:51.642Z,0.40
2018-10-02T16:42:19.827Z,0.40
2018-10-02T16:44:48.966Z,0.53
2018-10-02T16:47:17.260Z,0.50
2018-10-02T16:49:45.434Z,0.62
2018-10-02T16:52:13.518Z,0.60
2018-10-02T16:54:41.602Z,0.57
2018-10-02T16:57:09.709Z,0.85
2018-10-02T16:59:37.806Z,1.05
2018-10-02T17:02:05.894Z,1.00
2018-10-02T17:04:33.974Z,1.00
2018-10-02T17:07:02.070Z,1.05
2018-10-02T17:09:30.157Z,0.80
2018-10-02T17:11:58.268Z,0.90
2018-10-02T17:14:26.353Z,1.00
2018-10-02T17:16:54.590Z,0.75
2018-10-02T17:19:22.722Z,0.95
2018-10-02T17:21:50.911Z,1.00
2018-10-02T17:24:19.025Z,1.00
2018-10-02T17:26:47.130Z,0.90
2018-10-02T17:29:15.435Z,0.70
2018-10-02T17:31:43.522Z,0.82
2018-10-02T17:34:11.610Z,0.60
2018-10-02T17:36:39.734Z,0.57
2018-10-02T17:39:09.238Z,0.55
2018-10-02T17:41:37.732Z,0.70
2018-10-02T17:44:05.809Z,0.60
2018-10-02T17:46:34.078Z,0.62
2018-10-02T17:49:02.743Z,0.75
2018-10-02T17:51:31.111Z,0.50
2018-10-02T17:53:59.181Z,0.55
2018-10-02T17:56:27.392Z,0.60
2018-10-02T17:58:55.474Z,1.02
2018-10-02T18:01:23.628Z,0.50
2018-10-02T18:03:51.763Z,0.47
2018-10-02T18:06:19.895Z,0.60
2018-10-02T18:08:48.069Z,0.60
2018-10-02T18:11:16.530Z,0.70
2018-10-02T18:13:44.638Z,0.70
2018-10-02T18:16:12.734Z,0.45
2018-10-02T18:18:40.806Z,0.82
2018-10-02T18:21:08.885Z,0.80
2018-10-02T18:23:36.980Z,1.20
2018-10-02T18:26:05.078Z,1.00
2018-10-02T18:28:33.194Z,0.70
2018-10-02T18:31:01.318Z,0.85
2018-10-02T18:33:29.390Z,0.98
2018-10-02T18:35:57.555Z,1.05
2018-10-02T18:38:25.638Z,1.27
2018-10-02T18:40:53.738Z,0.90
2018-10-02T18:43:21.818Z,1.00
2018-10-02T18:45:49.985Z,1.10
2018-10-02T18:48:18.073Z,0.88
2018-10-02T18:50:46.871Z,1.12
2018-10-02T18:53:15.052Z,1.05
2018-10-02T18:55:43.150Z,1.10
2018-10-02T18:58:11.382Z,1.37
2018-10-02T19:00:39.478Z,1.20
2018-10-02T19:03:07.639Z,1.30
2018-10-02T19:05:35.823Z,1.25
2018-10-02T19:08:03.927Z,1.20
2018-10-02T19:10:32.018Z,1.55
2018-10-02T19:13:00.190Z,1.45
2018-10-02T19:15:32.538Z,1.70
2018-10-02T19:18:00.627Z,1.50
2018-10-02T19:20:34.118Z,1.52
2018-10-02T19:23:02.220Z,1.72
2018-10-02T19:25:35.742Z,1.85
2018-10-02T19:28:03.854Z,1.50
2018-10-02T19:31:36.333Z,1.80
2018-10-02T19:34:04.414Z,2.02
2018-10-02T19:36:32.522Z,2.00
2018-10-02T19:39:02.450Z,2.27
2018-10-02T19:41:30.846Z,2.02
2018-10-02T19:43:58.969Z,2.12
2018-10-02T19:46:31.375Z,2.40
2018-10-02T19:48:59.499Z,2.25
2018-10-02T19:51:32.947Z,2.37
2018-10-02T19:54:01.133Z,2.55
2018-10-02T19:56:29.222Z,2.42
2018-10-02T19:58:57.382Z,2.62
2018-10-02T20:01:25.542Z,2.55
2018-10-02T20:03:53.726Z,3.08
2018-10-02T20:06:21.813Z,2.58
2018-10-02T20:08:49.935Z,2.52
2018-10-02T20:11:18.023Z,2.80
2018-10-02T20:13:46.306Z,2.87
2018-10-02T20:16:14.475Z,3.10
2018-10-02T20:18:42.634Z,2.55
2018-10-02T20:21:10.878Z,3.15
2018-10-02T20:23:39.027Z,2.42
2018-10-02T20:26:07.242Z,3.25
2018-10-02T20:28:35.430Z,3.05
2018-10-02T20:31:03.597Z,3.25
2018-10-02T20:33:31.718Z,2.72
2018-10-02T20:35:59.896Z,3.12
2018-10-02T20:38:28.057Z,3.40
2018-10-02T20:40:56.210Z,3.10
2018-10-02T20:43:24.313Z,3.02
2018-10-02T20:45:52.415Z,2.55
2018-10-02T20:48:20.538Z,3.60
2018-10-02T20:50:48.744Z,3.12
2018-10-02T20:53:16.959Z,3.83
2018-10-02T20:55:45.459Z,4.00
2018-10-02T20:58:14.116Z,3.83
2018-10-02T21:00:42.249Z,4.45
2018-10-02T21:03:10.443Z,3.85
2018-10-02T21:05:38.655Z,4.22
2018-10-02T21:08:06.858Z,4.05
2018-10-02T21:10:35.023Z,4.25
2018-10-02T21:13:03.137Z,4.33
2018-10-02T21:15:31.482Z,4.35
2018-10-02T21:17:59.513Z,4.40
2018-10-02T21:20:27.642Z,4.33
2018-10-02T21:22:55.829Z,4.50
2018-10-02T21:25:23.926Z,4.55
2018-10-02T21:27:52.110Z,4.67
2018-10-02T21:30:20.223Z,4.90
2018-10-02T21:32:48.434Z,4.50
2018-10-02T21:35:16.735Z,4.03
2018-10-02T21:37:44.906Z,3.70
2018-10-02T21:40:13.071Z,4.33
2018-10-02T21:42:41.123Z,3.80
2018-10-02T21:45:09.300Z,4.08
2018-10-02T21:47:37.397Z,4.17
2018-10-02T21:50:05.614Z,4.00
2018-10-02T21:52:33.815Z,3.30
2018-10-02T21:55:02.030Z,4.35
2018-10-02T21:57:30.217Z,3.92
2018-10-02T21:59:58.394Z,3.77
2018-10-02T22:02:26.506Z,3.98
2018-10-02T22:04:54.587Z,3.90
2018-10-02T22:07:22.695Z,3.83
2018-10-02T22:09:50.795Z,3.65
2018-10-02T22:12:18.996Z,3.92
2018-10-02T22:14:47.125Z,3.60
2018-10-02T22:17:15.284Z,3.02
2018-10-02T22:19:43.460Z,3.40
2018-10-02T22:22:11.586Z,3.47
2018-10-02T22:24:39.752Z,2.87
2018-10-02T22:27:07.906Z,3.62
2018-10-02T22:29:36.079Z,3.22
2018-10-02T22:32:04.186Z,3.60
2018-10-02T22:34:32.314Z,3.65
2018-10-02T22:37:00.475Z,4.12
2018-10-02T22:39:28.566Z,4.22
2018-10-02T22:41:56.674Z,4.53
2018-10-02T22:44:24.761Z,4.12
2018-10-02T22:46:52.861Z,3.90
2018-10-02T22:49:20.959Z,4.03
2018-10-02T22:51:49.102Z,4.08
2018-10-02T22:54:17.257Z,4.20
2018-10-02T22:56:45.339Z,3.70
2018-10-02T22:59:13.513Z,3.80
2018-10-02T23:01:41.546Z,3.80
2018-10-02T23:04:09.674Z,4.20
2018-10-02T23:06:37.841Z,4.47
2018-10-02T23:09:08.676Z,4.47
2018-10-02T23:11:36.806Z,4.62
2018-10-02T23:14:04.933Z,5.33
2018-10-02T23:16:33.106Z,4.83
2018-10-02T23:19:01.226Z,5.10
2018-10-02T23:21:29.411Z,4.33
2018-10-02T23:23:57.511Z,4.17
2018-10-02T23:26:25.618Z,4.83
2018-10-02T23:28:53.814Z,4.60
2018-10-02T23:31:22.030Z,4.05
2018-10-02T23:33:50.205Z,3.87
2018-10-02T23:36:18.293Z,5.05
2018-10-02T23:38:46.394Z,5.05
2018-10-02T23:41:14.518Z,5.53
2018-10-02T23:43:42.835Z,6.28
2018-10-02T23:46:10.982Z,5.72
2018-10-02T23:48:39.114Z,6.30
2018-10-02T23:51:07.341Z,6.03
2018-10-02T23:53:35.547Z,6.55
2018-10-02T23:56:03.685Z,5.85
2018-10-02T23:58:31.868Z,6.28
